createdAt,value
2023-05-22T00:00:44.786Z,55.13
2023-05-22T00:01:44.777Z,54.93
2023-05-22T00:02:44.855Z,54.93
2023-05-22T00:03:44.779Z,55.23
2023-05-22T00:04:44.811Z,55.33
2023-05-22T00:05:44.766Z,55.03
2023-05-22T00:06:44.762Z,55.05
2023-05-22T00:07:44.759Z,55.23
2023-05-22T00:08:44.753Z,55.26
2023-05-22T00:09:44.756Z,54.65
2023-05-22T00:10:44.754Z,54.83
2023-05-22T00:11:44.746Z,55.26
2023-05-22T00:12:44.754Z,55.26
2023-05-22T00:13:44.741Z,55.05
2023-05-22T00:14:44.756Z,55.35
2023-05-22T00:15:44.735Z,54.55
2023-05-22T00:16:44.763Z,55.46
2023-05-22T00:17:44.760Z,54.85
2023-05-22T00:18:44.820Z,55.55
2023-05-22T00:19:44.722Z,54.65
2023-05-22T00:20:44.718Z,55.05
2023-05-22T00:21:44.722Z,54.96
2023-05-22T00:22:44.718Z,55.05
2023-05-22T00:23:44.715Z,54.75
2023-05-22T00:24:44.710Z,54.85
2023-05-22T00:25:44.712Z,55.66
2023-05-22T00:26:44.723Z,55.46
2023-05-22T00:27:44.727Z,55.26
2023-05-22T00:28:44.694Z,55.48
2023-05-22T00:29:44.693Z,55.28
2023-05-22T00:30:44.719Z,55.08
2023-05-22T00:31:44.689Z,55.68
2023-05-22T00:32:44.765Z,55.28
2023-05-22T00:33:44.699Z,55.18
2023-05-22T00:34:44.803Z,55.28
2023-05-22T00:35:44.686Z,55.08
2023-05-22T00:36:44.682Z,55.58
2023-05-22T00:37:44.671Z,55.28
2023-05-22T00:38:44.672Z,55.08
2023-05-22T00:39:44.664Z,55.28
2023-05-22T00:40:44.660Z,55.28
2023-05-22T00:41:44.688Z,55.28
2023-05-22T00:42:44.658Z,55.38
2023-05-22T00:43:44.651Z,55.41
2023-05-22T00:44:44.656Z,55.58
2023-05-22T00:45:44.735Z,55.41
2023-05-22T00:46:44.713Z,56.01
2023-05-22T00:47:44.688Z,55.91
2023-05-22T00:48:44.639Z,56.01
2023-05-22T00:49:44.635Z,55.61
2023-05-22T00:50:44.637Z,55.71
2023-05-22T00:51:44.626Z,56.11
2023-05-22T00:52:44.625Z,56.01
2023-05-22T00:53:44.622Z,56.01
2023-05-22T00:54:44.628Z,55.83
2023-05-22T00:55:44.615Z,55.61
2023-05-22T00:56:44.612Z,55.71
2023-05-22T00:57:44.612Z,55.51
2023-05-22T00:58:44.611Z,56.01
2023-05-22T00:59:44.612Z,56.11
2023-05-22T01:00:44.594Z,55.43
2023-05-22T01:01:44.665Z,55.94
2023-05-22T01:02:44.688Z,55.54
2023-05-22T01:03:44.748Z,55.94
2023-05-22T01:04:44.584Z,56.04
2023-05-22T01:05:44.579Z,56.44
2023-05-22T01:06:44.576Z,55.23
2023-05-22T01:07:44.574Z,56.04
2023-05-22T01:08:44.587Z,56.04
2023-05-22T01:09:44.569Z,56.04
2023-05-22T01:10:44.561Z,55.94
2023-05-22T01:11:44.582Z,56.16
2023-05-22T01:12:44.556Z,56.14
2023-05-22T01:13:44.553Z,56.07
2023-05-22T01:14:44.552Z,56.04
2023-05-22T01:15:44.542Z,56.07
2023-05-22T01:16:44.622Z,56.27
2023-05-22T01:17:44.614Z,56.27
2023-05-22T01:18:44.566Z,55.54
2023-05-22T01:19:44.532Z,56.64
2023-05-22T01:20:45.317Z,56.95
2023-05-22T01:21:44.531Z,56.16
2023-05-22T01:22:44.520Z,56.27
2023-05-22T01:23:44.523Z,56.16
2023-05-22T01:24:44.512Z,56.07
2023-05-22T01:25:44.509Z,56.24
2023-05-22T01:26:44.509Z,56.16
2023-05-22T01:27:44.499Z,56.47
2023-05-22T01:28:44.500Z,56.07
2023-05-22T01:29:44.512Z,57.48
2023-05-22T01:30:44.493Z,55.87
2023-05-22T01:31:44.486Z,56.97
2023-05-22T01:32:44.550Z,56.90
2023-05-22T01:33:44.589Z,56.49
2023-05-22T01:34:44.475Z,56.80
2023-05-22T01:35:44.472Z,57.20
2023-05-22T01:36:44.473Z,57.00
2023-05-22T01:37:44.464Z,56.49
2023-05-22T01:38:44.464Z,57.40
2023-05-22T01:39:44.464Z,57.00
2023-05-22T01:40:44.457Z,56.82
2023-05-22T01:41:44.451Z,57.30
2023-05-22T01:42:44.444Z,56.60
2023-05-22T01:43:44.454Z,57.00
2023-05-22T01:44:44.439Z,57.10
2023-05-22T01:45:44.469Z,57.53
2023-05-22T01:46:44.448Z,57.12
2023-05-22T01:47:44.462Z,57.93
2023-05-22T01:48:44.498Z,57.23
2023-05-22T01:49:44.430Z,57.63
2023-05-22T01:50:44.416Z,57.73
2023-05-22T01:51:44.417Z,57.43
2023-05-22T01:52:44.428Z,57.73
2023-05-22T01:53:44.420Z,57.23
2023-05-22T01:54:44.403Z,57.32
2023-05-22T01:55:44.399Z,57.12
2023-05-22T01:56:44.413Z,56.32
2023-05-22T01:57:44.391Z,56.82
2023-05-22T01:58:44.403Z,56.72
2023-05-22T01:59:44.394Z,56.92
2023-05-22T02:00:44.384Z,57.15
2023-05-22T02:01:44.436Z,56.52
2023-05-22T02:02:44.443Z,56.65
2023-05-22T02:03:44.425Z,56.75
2023-05-22T02:04:44.372Z,56.82
2023-05-22T02:05:44.361Z,56.65
2023-05-22T02:06:44.362Z,56.72
2023-05-22T02:07:44.359Z,56.92
2023-05-22T02:08:44.391Z,57.45
2023-05-22T02:09:44.347Z,56.42
2023-05-22T02:10:44.348Z,57.65
2023-05-22T02:11:44.337Z,57.45
2023-05-22T02:12:44.335Z,56.55
2023-05-22T02:13:44.329Z,57.25
2023-05-22T02:14:44.325Z,57.76
2023-05-22T02:15:44.361Z,57.56
2023-05-22T02:16:44.316Z,57.15
2023-05-22T02:17:44.336Z,57.76
2023-05-22T02:18:44.355Z,57.65
2023-05-22T02:19:44.305Z,57.96
2023-05-22T02:20:44.304Z,57.45
2023-05-22T02:21:44.301Z,58.26
2023-05-22T02:22:44.314Z,58.19
2023-05-22T02:23:44.292Z,58.09
2023-05-22T02:24:44.289Z,57.78
2023-05-22T02:25:44.291Z,57.68
2023-05-22T02:26:44.284Z,58.49
2023-05-22T02:27:44.275Z,58.39
2023-05-22T02:28:44.274Z,58.49
2023-05-22T02:29:44.275Z,59.20
2023-05-22T02:30:44.266Z,59.20
2023-05-22T02:31:44.296Z,59.83
2023-05-22T02:32:44.322Z,59.53
2023-05-22T02:33:44.250Z,59.53
2023-05-22T02:34:44.246Z,59.63
2023-05-22T02:35:44.247Z,60.26
2023-05-22T02:36:44.251Z,59.42
2023-05-22T02:37:44.254Z,59.86
2023-05-22T02:38:44.232Z,59.53
2023-05-22T02:39:44.234Z,60.06
2023-05-22T02:40:44.228Z,59.76
2023-05-22T02:41:44.219Z,60.57
2023-05-22T02:42:44.220Z,59.56
2023-05-22T02:43:44.260Z,59.96
2023-05-22T02:44:44.209Z,59.25
2023-05-22T02:45:44.201Z,60.16
2023-05-22T02:46:44.228Z,59.22
2023-05-22T02:47:44.222Z,59.12
2023-05-22T02:48:44.190Z,59.12
2023-05-22T02:49:44.189Z,59.45
2023-05-22T02:50:44.214Z,59.25
2023-05-22T02:51:44.202Z,59.86
2023-05-22T02:52:44.177Z,60.57
2023-05-22T02:53:44.189Z,59.96
2023-05-22T02:54:44.174Z,59.76
2023-05-22T02:55:44.165Z,59.86
2023-05-22T02:56:44.157Z,60.39
2023-05-22T02:57:44.154Z,59.76
2023-05-22T02:58:44.149Z,60.69
2023-05-22T02:59:44.144Z,59.48
2023-05-22T03:00:44.139Z,60.09
2023-05-22T03:01:44.178Z,60.39
2023-05-22T03:02:44.201Z,59.56
2023-05-22T03:03:44.246Z,60.26
2023-05-22T03:04:44.123Z,59.66
2023-05-22T03:05:44.121Z,59.56
2023-05-22T03:06:44.114Z,59.45
2023-05-22T03:07:45.932Z,59.15
2023-05-22T03:08:44.106Z,59.35
2023-05-22T03:09:44.102Z,59.76
2023-05-22T03:10:44.100Z,60.29
2023-05-22T03:11:44.097Z,60.69
2023-05-22T03:12:44.093Z,60.60
2023-05-22T03:13:44.093Z,60.60
2023-05-22T03:14:44.080Z,60.69
2023-05-22T03:15:44.078Z,60.32
2023-05-22T03:16:44.200Z,60.89
2023-05-22T03:17:44.101Z,60.80
2023-05-22T03:18:44.097Z,61.20
2023-05-22T03:19:44.060Z,60.60
2023-05-22T03:20:44.063Z,60.52
2023-05-22T03:21:44.061Z,61.23
2023-05-22T03:22:44.053Z,61.80
2023-05-22T03:23:44.056Z,62.24
2023-05-22T03:24:44.041Z,62.54
2023-05-22T03:25:44.040Z,62.74
2023-05-22T03:26:44.116Z,63.45
2023-05-22T03:27:44.035Z,62.47
2023-05-22T03:28:44.051Z,62.85
2023-05-22T03:29:44.018Z,62.87
2023-05-22T03:30:44.021Z,62.64
2023-05-22T03:31:44.010Z,63.68
2023-05-22T03:32:44.063Z,63.08
2023-05-22T03:33:44.035Z,63.89
2023-05-22T03:34:44.068Z,62.67
2023-05-22T03:35:43.993Z,63.68
2023-05-22T03:36:43.992Z,63.28
2023-05-22T03:37:43.986Z,63.89
2023-05-22T03:38:43.982Z,62.57
2023-05-22T03:39:43.978Z,63.38
2023-05-22T03:40:43.972Z,62.54
2023-05-22T03:41:44.016Z,63.18
2023-05-22T03:42:43.964Z,62.64
2023-05-22T03:43:44.978Z,63.55
2023-05-22T03:44:43.958Z,62.14
2023-05-22T03:45:43.996Z,62.24
2023-05-22T03:46:43.951Z,62.44
2023-05-22T03:47:43.954Z,62.85
2023-05-22T03:48:43.943Z,62.95
2023-05-22T03:49:43.937Z,63.05
2023-05-22T03:50:43.933Z,62.67
2023-05-22T03:51:43.928Z,62.64
2023-05-22T03:52:43.929Z,62.44
2023-05-22T03:53:43.918Z,62.74
2023-05-22T03:54:43.918Z,62.44
2023-05-22T03:55:43.909Z,62.24
2023-05-22T03:56:43.905Z,61.53
2023-05-22T03:57:43.901Z,61.33
2023-05-22T03:58:43.898Z,61.91
2023-05-22T03:59:43.899Z,61.53
2023-05-22T04:00:43.890Z,61.83
2023-05-22T04:01:43.896Z,61.51
2023-05-22T04:02:43.991Z,61.51
2023-05-22T04:03:43.933Z,61.71
2023-05-22T04:04:43.905Z,61.57
2023-05-22T04:05:43.873Z,60.87
2023-05-22T04:06:43.861Z,61.00
2023-05-22T04:07:43.857Z,60.39
2023-05-22T04:08:43.855Z,61.07
2023-05-22T04:09:43.856Z,61.17
2023-05-22T04:10:43.842Z,61.27
2023-05-22T04:11:43.836Z,59.76
2023-05-22T04:12:43.837Z,60.53
2023-05-22T04:13:43.835Z,59.42
2023-05-22T04:14:43.831Z,60.84
2023-05-22T04:15:43.843Z,60.84
2023-05-22T04:16:43.818Z,59.60
2023-05-22T04:17:43.876Z,59.33
2023-05-22T04:18:43.855Z,59.50
2023-05-22T04:19:43.808Z,60.10
2023-05-22T04:20:43.822Z,59.50
2023-05-22T04:21:43.793Z,59.20
2023-05-22T04:22:43.807Z,59.67
2023-05-22T04:23:43.799Z,60.17
2023-05-22T04:24:43.785Z,59.30
2023-05-22T04:25:43.781Z,59.20
2023-05-22T04:26:43.778Z,58.97
2023-05-22T04:27:43.768Z,59.50
2023-05-22T04:28:43.768Z,59.57
2023-05-22T04:29:43.764Z,59.97
2023-05-22T04:30:43.762Z,59.37
2023-05-22T04:31:43.777Z,59.47
2023-05-22T04:32:43.803Z,60.17
2023-05-22T04:33:43.748Z,59.50
2023-05-22T04:34:43.748Z,59.60
2023-05-22T04:35:43.741Z,60.61
2023-05-22T04:36:43.734Z,60.10
2023-05-22T04:37:43.733Z,59.50
2023-05-22T04:38:43.738Z,59.60
2023-05-22T04:39:43.901Z,59.80
2023-05-22T04:40:43.728Z,59.77
2023-05-22T04:41:43.717Z,59.17
2023-05-22T04:42:43.713Z,58.47
2023-05-22T04:43:43.710Z,59.17
2023-05-22T04:44:43.770Z,59.27
2023-05-22T04:45:43.951Z,59.57
2023-05-22T04:46:43.806Z,59.27
2023-05-22T04:47:43.749Z,59.57
2023-05-22T04:48:43.695Z,59.55
2023-05-22T04:49:43.742Z,60.05
2023-05-22T04:50:43.718Z,58.54
2023-05-22T04:51:43.679Z,58.84
2023-05-22T04:52:43.679Z,59.67
2023-05-22T04:53:43.736Z,59.34
2023-05-22T04:54:43.671Z,59.48
2023-05-22T04:55:43.679Z,58.98
2023-05-22T04:56:43.665Z,58.48
2023-05-22T04:57:43.660Z,58.45
2023-05-22T04:58:43.653Z,57.35
2023-05-22T04:59:43.654Z,57.88
2023-05-22T05:00:43.774Z,58.88
2023-05-22T05:01:43.710Z,59.52
2023-05-22T05:02:43.711Z,58.51
2023-05-22T05:03:43.653Z,59.44
2023-05-22T05:04:43.639Z,59.95
2023-05-22T05:05:43.632Z,59.01
2023-05-22T05:06:43.630Z,59.44
2023-05-22T05:07:43.620Z,59.39
2023-05-22T05:08:43.620Z,58.58
2023-05-22T05:09:43.618Z,57.78
2023-05-22T05:10:43.632Z,58.71
2023-05-22T05:11:43.612Z,59.01
2023-05-22T05:12:43.608Z,59.48
2023-05-22T05:13:43.604Z,59.46
2023-05-22T05:14:43.600Z,57.68
2023-05-22T05:15:43.599Z,58.28
2023-05-22T05:16:43.646Z,58.68
2023-05-22T05:17:43.728Z,58.98
2023-05-22T05:18:43.713Z,58.58
2023-05-22T05:19:43.581Z,59.48
2023-05-22T05:20:43.579Z,58.58
2023-05-22T05:21:43.579Z,59.01
2023-05-22T05:22:43.576Z,58.31
2023-05-22T05:23:43.572Z,59.24
2023-05-22T05:24:43.565Z,59.82
2023-05-22T05:25:43.563Z,59.01
2023-05-22T05:26:43.562Z,58.71
2023-05-22T05:27:43.558Z,59.22
2023-05-22T05:28:43.570Z,59.31
2023-05-22T05:29:43.559Z,58.58
2023-05-22T05:30:43.553Z,58.58
2023-05-22T05:31:43.610Z,57.62
2023-05-22T05:32:43.602Z,58.53
2023-05-22T05:33:43.561Z,57.65
2023-05-22T05:34:43.543Z,57.75
2023-05-22T05:35:43.536Z,57.72
2023-05-22T05:36:43.539Z,57.12
2023-05-22T05:37:43.536Z,56.01
2023-05-22T05:38:43.529Z,57.19
2023-05-22T05:39:43.526Z,57.29
2023-05-22T05:40:43.520Z,57.50
2023-05-22T05:41:43.521Z,56.23
2023-05-22T05:42:43.518Z,55.76
2023-05-22T05:43:43.516Z,56.36
2023-05-22T05:44:43.511Z,54.70
2023-05-22T05:45:43.550Z,54.30
2023-05-22T05:46:43.611Z,55.60
2023-05-22T05:47:43.593Z,55.40
2023-05-22T05:48:43.507Z,54.77
2023-05-22T05:49:43.507Z,55.10
2023-05-22T05:50:43.512Z,55.47
2023-05-22T05:51:43.499Z,55.63
2023-05-22T05:52:43.495Z,55.40
2023-05-22T05:53:43.495Z,55.30
2023-05-22T05:54:43.492Z,55.30
2023-05-22T05:55:43.488Z,55.40
2023-05-22T05:56:43.487Z,55.73
2023-05-22T05:57:43.485Z,56.21
2023-05-22T05:58:43.497Z,55.33
2023-05-22T05:59:43.486Z,56.01
2023-05-22T06:00:43.483Z,56.10
2023-05-22T06:01:43.479Z,55.10
2023-05-22T06:02:43.592Z,56.36
2023-05-22T06:03:43.611Z,56.86
2023-05-22T06:04:43.474Z,58.12
2023-05-22T06:05:43.540Z,58.62
2023-05-22T06:06:43.469Z,58.42
2023-05-22T06:07:43.480Z,58.53
2023-05-22T06:08:43.465Z,59.13
2023-05-22T06:09:43.465Z,60.13
2023-05-22T06:10:43.476Z,59.60
2023-05-22T06:11:43.460Z,59.27
2023-05-22T06:12:43.464Z,57.59
2023-05-22T06:13:43.468Z,58.90
2023-05-22T06:14:43.459Z,58.73
2023-05-22T06:15:43.455Z,59.13
2023-05-22T06:16:44.074Z,59.23
2023-05-22T06:17:43.503Z,59.03
2023-05-22T06:18:43.459Z,60.03
2023-05-22T06:19:43.451Z,58.93
2023-05-22T06:20:43.448Z,59.63
2023-05-22T06:21:43.441Z,59.20
2023-05-22T06:22:43.439Z,58.60
2023-05-22T06:23:43.438Z,58.93
2023-05-22T06:24:43.433Z,59.53
2023-05-22T06:25:43.432Z,58.60
2023-05-22T06:26:43.430Z,60.00
2023-05-22T06:27:43.443Z,58.90
2023-05-22T06:28:43.428Z,59.70
2023-05-22T06:29:43.425Z,58.97
2023-05-22T06:30:43.523Z,58.42
2023-05-22T06:31:43.665Z,57.89
2023-05-22T06:32:43.583Z,57.68
2023-05-22T06:33:43.682Z,57.48
2023-05-22T06:34:43.414Z,56.88
2023-05-22T06:35:43.414Z,56.91
2023-05-22T06:36:43.412Z,56.81
2023-05-22T06:37:43.479Z,57.01
2023-05-22T06:38:43.421Z,57.18
2023-05-22T06:39:43.410Z,56.88
2023-05-22T06:40:43.402Z,56.18
2023-05-22T06:41:43.401Z,57.28
2023-05-22T06:42:43.401Z,56.85
2023-05-22T06:43:43.394Z,55.93
2023-05-22T06:44:43.399Z,55.80
2023-05-22T06:45:43.474Z,55.00
2023-05-22T06:46:43.400Z,55.77
2023-05-22T06:47:43.420Z,55.24
2023-05-22T06:48:43.392Z,53.59
2023-05-22T06:49:43.402Z,53.52
2023-05-22T06:50:43.398Z,53.12
2023-05-22T06:51:43.395Z,53.22
2023-05-22T06:52:43.389Z,53.55
2023-05-22T06:53:43.405Z,54.12
2023-05-22T06:54:43.414Z,53.14
2023-05-22T06:55:43.399Z,54.77
2023-05-22T06:56:43.400Z,55.32
2023-05-22T06:57:43.392Z,56.96
2023-05-22T06:58:43.387Z,56.85
2023-05-22T06:59:43.389Z,56.73
2023-05-22T07:00:43.383Z,55.85
2023-05-22T07:01:43.450Z,56.30
2023-05-22T07:02:43.547Z,54.87
2023-05-22T07:03:43.390Z,54.55
2023-05-22T07:04:43.393Z,53.92
2023-05-22T07:05:43.439Z,54.67
2023-05-22T07:06:43.386Z,52.17
2023-05-22T07:07:43.381Z,52.72
2023-05-22T07:08:43.383Z,54.35
2023-05-22T07:09:43.550Z,56.20
2023-05-22T07:10:43.390Z,56.90
2023-05-22T07:11:43.381Z,56.80
2023-05-22T07:12:43.391Z,56.27
2023-05-22T07:13:43.388Z,55.27
2023-05-22T07:14:43.381Z,55.87
2023-05-22T07:15:45.123Z,55.57
2023-05-22T07:16:43.419Z,55.94
2023-05-22T07:17:43.469Z,56.05
2023-05-22T07:18:43.384Z,55.65
2023-05-22T07:19:43.386Z,55.99
2023-05-22T07:20:43.381Z,54.69
2023-05-22T07:21:43.381Z,54.29
2023-05-22T07:22:43.382Z,54.92
2023-05-22T07:23:43.382Z,55.09
2023-05-22T07:24:43.389Z,53.77
2023-05-22T07:25:43.417Z,53.97
2023-05-22T07:26:43.380Z,53.49
2023-05-22T07:27:43.378Z,53.57
2023-05-22T07:28:43.385Z,53.27
2023-05-22T07:29:43.397Z,54.29
2023-05-22T07:30:43.389Z,54.90
2023-05-22T07:31:43.424Z,54.97
2023-05-22T07:32:43.405Z,53.87
2023-05-22T07:33:43.386Z,54.04
2023-05-22T07:34:43.390Z,53.02
2023-05-22T07:35:43.388Z,52.64
2023-05-22T07:36:43.419Z,53.04
2023-05-22T07:37:43.391Z,52.84
2023-05-22T07:38:43.389Z,53.02
2023-05-22T07:39:43.393Z,53.19
2023-05-22T07:40:43.396Z,52.92
2023-05-22T07:41:43.557Z,52.82
2023-05-22T07:42:43.400Z,52.42
2023-05-22T07:43:43.398Z,52.64
2023-05-22T07:44:43.402Z,53.42
2023-05-22T07:45:43.452Z,52.47
2023-05-22T07:46:43.527Z,51.05
2023-05-22T07:47:43.440Z,51.12
2023-05-22T07:48:43.407Z,50.32
2023-05-22T07:49:43.426Z,51.32
2023-05-22T07:50:43.411Z,51.00
2023-05-22T07:51:43.406Z,50.43
2023-05-22T07:52:43.408Z,50.90
2023-05-22T07:53:43.414Z,50.90
2023-05-22T07:54:45.199Z,50.62
2023-05-22T07:55:43.437Z,50.92
2023-05-22T07:56:43.417Z,51.22
2023-05-22T07:57:43.532Z,51.35
2023-05-22T07:58:43.422Z,50.25
2023-05-22T07:59:43.426Z,50.92
2023-05-22T08:00:43.432Z,50.92
2023-05-22T08:01:43.429Z,51.03
2023-05-22T08:02:43.644Z,50.73
2023-05-22T08:03:43.567Z,51.03
2023-05-22T08:04:43.451Z,50.00
2023-05-22T08:05:43.438Z,49.68
2023-05-22T08:06:43.445Z,49.88
2023-05-22T08:07:43.443Z,49.68
2023-05-22T08:08:43.450Z,51.15
2023-05-22T08:09:43.447Z,51.25
2023-05-22T08:10:58.109Z,50.55
2023-05-22T08:11:43.451Z,50.97
2023-05-22T08:12:43.464Z,51.52
2023-05-22T08:13:43.496Z,50.48
2023-05-22T08:14:43.460Z,50.45
2023-05-22T08:15:43.465Z,49.46
2023-05-22T08:16:43.478Z,49.63
2023-05-22T08:17:43.501Z,50.08
2023-05-22T08:18:43.477Z,47.77
2023-05-22T08:19:43.547Z,48.02
2023-05-22T08:20:43.471Z,50.25
2023-05-22T08:21:43.475Z,50.60
2023-05-22T08:22:43.481Z,51.32
2023-05-22T08:23:43.476Z,50.92
2023-05-22T08:24:43.491Z,51.70
2023-05-22T08:25:43.485Z,51.59
2023-05-22T08:26:43.551Z,50.40
2023-05-22T08:27:43.490Z,50.92
2023-05-22T08:28:43.527Z,50.73
2023-05-22T08:29:43.495Z,51.50
2023-05-22T08:30:43.488Z,50.73
2023-05-22T08:31:43.595Z,51.92
2023-05-22T08:32:43.536Z,51.62
2023-05-22T08:33:43.496Z,51.70
2023-05-22T08:34:43.498Z,51.59
2023-05-22T08:35:43.496Z,51.17
2023-05-22T08:36:43.501Z,52.47
2023-05-22T08:37:43.498Z,50.38
2023-05-22T08:38:43.499Z,50.82
2023-05-22T08:39:43.503Z,52.25
2023-05-22T08:40:46.210Z,51.65
2023-05-22T08:41:43.504Z,51.25
2023-05-22T08:42:43.512Z,50.82
2023-05-22T08:43:43.512Z,51.92
2023-05-22T08:44:43.505Z,51.29
2023-05-22T08:45:43.593Z,50.30
2023-05-22T08:46:43.535Z,50.27
2023-05-22T08:47:43.549Z,50.18
2023-05-22T08:48:43.513Z,50.60
2023-05-22T08:49:43.512Z,50.73
2023-05-22T08:50:43.520Z,50.85
2023-05-22T08:51:43.511Z,51.07
2023-05-22T08:52:43.511Z,50.74
2023-05-22T08:53:43.589Z,51.25
2023-05-22T08:54:43.512Z,50.85
2023-05-22T08:55:43.519Z,51.45
2023-05-22T08:56:55.755Z,50.77
2023-05-22T08:57:43.519Z,52.27
2023-05-22T08:58:43.518Z,51.03
2023-05-22T08:59:43.518Z,50.60
2023-05-22T09:00:43.596Z,50.08
2023-05-22T09:01:43.852Z,50.08
2023-05-22T09:02:43.537Z,49.28
2023-05-22T09:03:43.573Z,48.58
2023-05-22T09:04:43.524Z,49.95
2023-05-22T09:05:43.528Z,49.08
2023-05-22T09:06:43.536Z,49.80
2023-05-22T09:07:43.529Z,49.08
2023-05-22T09:08:43.530Z,48.96
2023-05-22T09:09:43.544Z,48.96
2023-05-22T09:10:43.531Z,47.84
2023-05-22T09:11:43.526Z,49.85
2023-05-22T09:12:43.537Z,48.79
2023-05-22T09:13:43.586Z,48.50
2023-05-22T09:14:43.534Z,50.00
2023-05-22T09:15:43.537Z,49.21
2023-05-22T09:16:43.576Z,48.08
2023-05-22T09:17:43.595Z,48.01
2023-05-22T09:18:43.538Z,49.03
2023-05-22T09:19:43.571Z,49.30
2023-05-22T09:20:43.581Z,49.30
2023-05-22T09:21:43.558Z,49.21
2023-05-22T09:22:43.547Z,49.80
2023-05-22T09:23:43.558Z,49.10
2023-05-22T09:24:43.533Z,50.57
2023-05-22T09:25:43.538Z,49.68
2023-05-22T09:26:43.543Z,49.30
2023-05-22T09:27:43.544Z,48.91
2023-05-22T09:28:43.544Z,50.10
2023-05-22T09:29:43.542Z,49.43
2023-05-22T09:30:43.762Z,50.00
2023-05-22T09:31:43.901Z,50.60
2023-05-22T09:32:43.598Z,50.48
2023-05-22T09:33:43.550Z,49.98
2023-05-22T09:34:43.550Z,48.66
2023-05-22T09:35:43.546Z,49.16
2023-05-22T09:36:43.546Z,47.69
2023-05-22T09:37:43.562Z,48.71
2023-05-22T09:38:43.551Z,49.51
2023-05-22T09:39:43.560Z,48.79
2023-05-22T09:40:43.551Z,48.01
2023-05-22T09:41:43.551Z,48.80
2023-05-22T09:42:43.553Z,49.08
2023-05-22T09:43:43.557Z,48.49
2023-05-22T09:44:43.551Z,47.69
2023-05-22T09:45:43.554Z,48.49
2023-05-22T09:46:43.681Z,47.79
2023-05-22T09:47:43.585Z,48.04
2023-05-22T09:48:43.553Z,47.66
2023-05-22T09:49:43.553Z,48.14
2023-05-22T09:50:43.556Z,46.45
2023-05-22T09:51:43.553Z,47.25
2023-05-22T09:52:43.560Z,46.55
2023-05-22T09:53:43.557Z,47.49
2023-05-22T09:54:43.560Z,47.39
2023-05-22T09:55:43.556Z,47.39
2023-05-22T09:56:43.569Z,48.79
2023-05-22T09:57:43.559Z,46.87
2023-05-22T09:58:43.559Z,46.97
2023-05-22T09:59:43.562Z,46.59
2023-05-22T10:00:43.560Z,47.69
2023-05-22T10:01:43.586Z,47.69
2023-05-22T10:02:43.583Z,46.99
2023-05-22T10:03:43.560Z,47.19
2023-05-22T10:04:43.622Z,47.86
2023-05-22T10:05:43.669Z,47.07
2023-05-22T10:06:43.561Z,47.86
2023-05-22T10:07:43.564Z,46.75
2023-05-22T10:08:43.564Z,47.07
2023-05-22T10:09:43.560Z,47.37
2023-05-22T10:10:43.588Z,47.94
2023-05-22T10:11:43.564Z,47.14
2023-05-22T10:12:43.593Z,47.05
2023-05-22T10:13:43.563Z,46.95
2023-05-22T10:14:43.566Z,46.75
2023-05-22T10:15:43.596Z,46.84
2023-05-22T10:16:43.607Z,46.97
2023-05-22T10:17:43.579Z,46.87
2023-05-22T10:18:43.571Z,47.09
2023-05-22T10:19:44.686Z,47.39
2023-05-22T10:20:43.569Z,47.27
2023-05-22T10:21:43.669Z,45.48
2023-05-22T10:22:43.572Z,46.47
2023-05-22T10:23:43.570Z,46.89
2023-05-22T10:24:43.576Z,46.77
2023-05-22T10:25:43.572Z,46.47
2023-05-22T10:26:43.569Z,46.77
2023-05-22T10:27:43.572Z,47.47
2023-05-22T10:28:43.574Z,47.25
2023-05-22T10:29:43.570Z,48.52
2023-05-22T10:30:43.659Z,46.42
2023-05-22T10:31:43.573Z,46.70
2023-05-22T10:32:43.589Z,47.08
2023-05-22T10:33:43.606Z,45.49
2023-05-22T10:34:43.608Z,45.39
2023-05-22T10:35:43.596Z,46.19
2023-05-22T10:36:43.725Z,45.39
2023-05-22T10:37:43.657Z,45.39
2023-05-22T10:38:43.570Z,45.61
2023-05-22T10:39:43.681Z,45.33
2023-05-22T10:40:43.644Z,44.46
2023-05-22T10:41:43.574Z,45.95
2023-05-22T10:42:43.581Z,46.92
2023-05-22T10:43:43.575Z,47.62
2023-05-22T10:44:43.581Z,45.03
2023-05-22T10:45:45.280Z,44.74
2023-05-22T10:46:43.586Z,45.93
2023-05-22T10:47:43.583Z,45.61
2023-05-22T10:48:43.578Z,45.41
2023-05-22T10:49:43.687Z,44.92
2023-05-22T10:50:43.580Z,44.81
2023-05-22T10:51:43.579Z,44.92
2023-05-22T10:52:43.581Z,44.24
2023-05-22T10:53:43.671Z,44.16
2023-05-22T10:54:43.587Z,44.96
2023-05-22T10:55:43.583Z,44.58
2023-05-22T10:56:43.584Z,44.88
2023-05-22T10:57:43.584Z,44.66
2023-05-22T10:58:43.589Z,44.96
2023-05-22T10:59:43.592Z,45.06
2023-05-22T11:00:43.585Z,44.96
2023-05-22T11:01:43.603Z,44.46
2023-05-22T11:02:43.712Z,45.06
2023-05-22T11:03:43.653Z,44.16
2023-05-22T11:04:43.610Z,44.66
2023-05-22T11:05:43.588Z,45.15
2023-05-22T11:06:43.620Z,45.36
2023-05-22T11:07:43.598Z,45.71
2023-05-22T11:08:43.591Z,44.42
2023-05-22T11:09:43.683Z,44.99
2023-05-22T11:10:43.586Z,44.59
2023-05-22T11:11:43.591Z,43.80
2023-05-22T11:12:43.593Z,44.00
2023-05-22T11:13:43.607Z,43.54
2023-05-22T11:14:43.594Z,44.12
2023-05-22T11:15:43.598Z,45.14
2023-05-22T11:16:43.736Z,43.92
2023-05-22T11:17:43.654Z,43.94
2023-05-22T11:18:45.214Z,43.35
2023-05-22T11:19:43.615Z,43.84
2023-05-22T11:20:43.602Z,43.35
2023-05-22T11:21:43.598Z,43.24
2023-05-22T11:22:43.596Z,44.02
2023-05-22T11:23:43.601Z,44.02
2023-05-22T11:24:43.597Z,43.44
2023-05-22T11:25:43.683Z,44.14
2023-05-22T11:26:43.599Z,44.02
2023-05-22T11:27:43.605Z,44.44
2023-05-22T11:28:43.598Z,43.62
2023-05-22T11:29:43.600Z,42.51
2023-05-22T11:30:43.624Z,42.13
2023-05-22T11:31:43.677Z,43.52
2023-05-22T11:32:43.612Z,43.02
2023-05-22T11:33:43.604Z,43.60
2023-05-22T11:34:43.601Z,41.82
2023-05-22T11:35:43.603Z,42.72
2023-05-22T11:36:43.607Z,41.93
2023-05-22T11:37:43.616Z,41.85
2023-05-22T11:38:43.606Z,41.93
2023-05-22T11:39:43.605Z,42.72
2023-05-22T11:40:43.615Z,43.23
2023-05-22T11:41:43.690Z,41.83
2023-05-22T11:42:43.630Z,42.03
2023-05-22T11:43:43.608Z,41.74
2023-05-22T11:44:43.607Z,42.11
2023-05-22T11:45:43.618Z,41.20
2023-05-22T11:46:43.640Z,41.00
2023-05-22T11:47:43.688Z,41.52
2023-05-22T11:48:43.644Z,40.22
2023-05-22T11:49:43.609Z,40.62
2023-05-22T11:50:43.919Z,41.02
2023-05-22T11:51:43.611Z,41.02
2023-05-22T11:52:43.630Z,41.22
2023-05-22T11:53:43.609Z,40.70
2023-05-22T11:54:43.622Z,39.03
2023-05-22T11:55:43.610Z,39.90
2023-05-22T11:57:43.702Z,38.92
2023-05-22T11:58:43.603Z,40.01
2023-05-22T11:59:43.610Z,40.28
2023-05-22T12:00:43.665Z,37.92
2023-05-22T12:01:43.623Z,39.21
2023-05-22T12:02:43.667Z,39.39
2023-05-22T12:03:43.660Z,39.28
2023-05-22T12:04:43.613Z,39.07
2023-05-22T12:05:43.611Z,38.76
2023-05-22T12:06:43.671Z,37.55
2023-05-22T12:07:43.625Z,36.86
2023-05-22T12:08:43.606Z,37.88
2023-05-22T12:09:43.612Z,38.78
2023-05-22T12:10:43.611Z,37.59
2023-05-22T12:11:43.614Z,37.90
2023-05-22T12:12:43.630Z,38.10
2023-05-22T12:13:43.612Z,38.70
2023-05-22T12:14:43.614Z,38.00
2023-05-22T12:15:43.689Z,38.60
2023-05-22T12:16:43.624Z,38.60
2023-05-22T12:17:43.687Z,37.29
2023-05-22T12:18:43.620Z,36.99
2023-05-22T12:19:43.615Z,38.58
2023-05-22T12:20:43.616Z,38.20
2023-05-22T12:21:43.618Z,36.50
2023-05-22T12:22:43.718Z,37.70
2023-05-22T12:23:43.622Z,36.91
2023-05-22T12:24:43.618Z,38.00
2023-05-22T12:25:43.626Z,37.70
2023-05-22T12:26:43.673Z,36.99
2023-05-22T12:27:43.636Z,37.19
2023-05-22T12:28:43.625Z,37.27
2023-05-22T12:29:43.739Z,36.60
2023-05-22T12:30:43.633Z,36.93
2023-05-22T12:31:43.633Z,38.02
2023-05-22T12:32:43.640Z,38.38
2023-05-22T12:33:43.632Z,38.09
2023-05-22T12:34:43.632Z,36.69
2023-05-22T12:35:43.629Z,37.21
2023-05-22T12:36:43.638Z,37.52
2023-05-22T12:37:43.634Z,37.51
2023-05-22T12:38:43.652Z,37.60
2023-05-22T12:39:43.636Z,36.73
2023-05-22T12:40:43.641Z,37.32
2023-05-22T12:41:43.653Z,37.81
2023-05-22T12:42:43.639Z,37.19
2023-05-22T12:43:43.639Z,36.50
2023-05-22T12:44:43.690Z,36.90
2023-05-22T12:45:43.745Z,36.60
2023-05-22T12:46:43.669Z,35.98
2023-05-22T12:47:43.717Z,37.37
2023-05-22T12:48:43.644Z,36.98
2023-05-22T12:49:43.652Z,36.56
2023-05-22T12:50:43.650Z,35.86
2023-05-22T12:51:43.648Z,36.46
2023-05-22T12:52:43.653Z,35.88
2023-05-22T12:53:43.647Z,36.00